»·PEaware :: N50TC CYVR-KLAX

N50TC :: CYVR-KLAX

FLIGHT INFORMATION

Flight Status: Arrived
Operator: Privately registered:
United States
More flights under this callsign
Pilot: Steven R. (3445)
Aircraft: BOEING 737-700
(B737)
More flights by this aircraft type
Origin: CYVR Vancouver Intl
Canada
Destination: KLAX Los Angeles Intl
United States
More flights between these airports :: More routes between these airports
Route: YVR J5 SUMMA Q9 DERBB SADDE6
File this flight plan on PilotEdge
Remarks:
Altitude:
(Current/Filed)
41,000ft
Speed:
(Current/Filed)
444kts
Departed: 11-Apr-14 05:21 PM
Arrived: 11-Apr-14 07:42 PM
Distance/Time
Traveled:
940nm/2:20
Distance/Time
To Go:
Arrived

Flight Plot

Page will automatically refresh every two minutes.


Map Options




Map Legend


Flown Route
Filed Route
Departure Airport
Arrival Airport
Navaid (VOR, NDB)
Fix

Horizontal Profiles

Position Reports

Time Latitude Longitude Heading Altitude Ground
Speed
11-Apr-14 16:31 49.184118 -123.177297 123 21ft 0kts
11-Apr-14 16:32 49.184118 -123.177297 123 22ft 0kts
11-Apr-14 16:33 49.184118 -123.177297 123 22ft 0kts
11-Apr-14 16:34 49.184118 -123.177297 123 22ft 0kts
11-Apr-14 16:35 49.184118 -123.177297 123 22ft 0kts
11-Apr-14 16:36 49.184118 -123.177297 123 22ft 0kts
11-Apr-14 16:37 49.184118 -123.177297 123 22ft 0kts
11-Apr-14 16:38 49.184118 -123.177297 123 22ft 0kts
11-Apr-14 16:39 49.184118 -123.177297 123 22ft 0kts
11-Apr-14 16:40 49.184118 -123.177297 123 22ft 0kts
11-Apr-14 16:41 49.184118 -123.177297 123 22ft 0kts
11-Apr-14 16:42 49.184118 -123.177297 123 22ft 0kts
11-Apr-14 16:43 49.184118 -123.177297 123 22ft 0kts
11-Apr-14 16:44 49.184118 -123.177297 123 22ft 0kts
11-Apr-14 16:45 49.184118 -123.177297 123 22ft 0kts
11-Apr-14 16:46 49.184118 -123.177297 123 22ft 0kts
11-Apr-14 16:47 49.184118 -123.177297 123 22ft 0kts
11-Apr-14 16:48 49.184118 -123.177297 123 22ft 0kts
11-Apr-14 16:49 49.184118 -123.177297 123 22ft 0kts
11-Apr-14 16:50 49.184118 -123.177297 123 22ft 0kts
11-Apr-14 16:51 49.184118 -123.177297 123 22ft 0kts
11-Apr-14 16:52 49.184118 -123.177297 123 22ft 0kts
11-Apr-14 16:53 49.184118 -123.177297 123 22ft 0kts
11-Apr-14 16:54 49.184118 -123.177297 123 22ft 0kts
11-Apr-14 16:55 49.184118 -123.177297 123 22ft 0kts
11-Apr-14 16:56 49.184118 -123.177297 123 22ft 0kts
11-Apr-14 16:57 49.184118 -123.177297 123 22ft 0kts
11-Apr-14 16:58 49.184118 -123.177297 123 22ft 0kts
11-Apr-14 16:59 49.184118 -123.177297 123 22ft 0kts
11-Apr-14 17:00 49.184118 -123.177297 123 22ft 0kts
11-Apr-14 17:01 49.184118 -123.177297 123 22ft 0kts
11-Apr-14 17:02 49.184118 -123.177297 123 22ft 0kts
11-Apr-14 17:03 49.184118 -123.177297 123 22ft 0kts
11-Apr-14 17:04 49.184118 -123.177297 123 22ft 0kts
11-Apr-14 17:05 49.184118 -123.177297 123 22ft 0kts
11-Apr-14 17:06 49.184118 -123.177297 123 22ft 0kts
11-Apr-14 17:07 49.184118 -123.177297 123 22ft 0kts
11-Apr-14 17:08 49.184118 -123.177297 123 22ft 0kts
11-Apr-14 17:09 49.184118 -123.177297 123 22ft 0kts
11-Apr-14 17:10 49.184118 -123.177297 123 22ft 0kts
11-Apr-14 17:11 49.184118 -123.177297 123 22ft 0kts
11-Apr-14 17:12 49.184118 -123.177296 123 22ft 0kts
11-Apr-14 17:13 49.184118 -123.177295 123 22ft 0kts
11-Apr-14 17:14 49.184117 -123.177293 123 22ft 0kts
11-Apr-14 17:15 49.184116 -123.177291 123 22ft 0kts
11-Apr-14 17:16 49.184283 -123.175473 66 22ft 10kts
11-Apr-14 17:17 49.182861 -123.171926 139 22ft 11kts
11-Apr-14 17:18 49.182406 -123.167515 93 22ft 13kts
11-Apr-14 17:19 49.182945 -123.162548 3 22ft 9kts
11-Apr-14 17:20 49.185110 -123.164468 279 22ft 33kts
11-Apr-14 17:21 49.191201 -123.220921 265 2259ft 167kts
11-Apr-14 17:22 49.141006 -123.244099 148 5107ft 259kts
11-Apr-14 17:23 49.086685 -123.164552 142 9525ft 279kts
11-Apr-14 17:24 49.010725 -123.113030 166 12424ft 336kts
11-Apr-14 17:25 48.914427 -123.063210 166 15180ft 387kts
11-Apr-14 17:26 48.806605 -123.007183 168 17748ft 431kts
11-Apr-14 17:27 48.690199 -122.946447 166 20818ft 448kts
11-Apr-14 17:28 48.568790 -122.883271 168 23262ft 472kts
11-Apr-14 17:29 48.441259 -122.817353 168 25432ft 492kts
11-Apr-14 17:30 48.313872 -122.751909 169 28413ft 480kts
11-Apr-14 17:31 48.185106 -122.686097 169 30006ft 494kts
11-Apr-14 17:32 48.053581 -122.619215 169 31814ft 495kts
11-Apr-14 17:33 47.924477 -122.553925 170 33906ft 484kts
11-Apr-14 17:34 47.796425 -122.489503 170 35441ft 485kts
11-Apr-14 17:35 47.667532 -122.424794 167 36558ft 492kts
11-Apr-14 17:36 47.538502 -122.360630 167 38083ft 487kts
11-Apr-14 17:37 47.410623 -122.298699 172 39664ft 474kts
11-Apr-14 17:38 47.281655 -122.248352 170 40241ft 485kts
11-Apr-14 17:39 47.151486 -122.196746 168 41110ft 482kts
11-Apr-14 17:40 47.022625 -122.146044 168 41118ft 475kts
11-Apr-14 17:41 46.894467 -122.095786 168 41129ft 476kts
11-Apr-14 17:42 46.766184 -122.045751 168 41129ft 476kts
11-Apr-14 17:43 46.637895 -121.996049 168 41130ft 476kts
11-Apr-14 17:44 46.508936 -121.960577 174 41078ft 468kts
11-Apr-14 17:45 46.379982 -121.930364 174 41071ft 467kts
11-Apr-14 17:46 46.250685 -121.899538 174 41070ft 469kts
11-Apr-14 17:47 46.121787 -121.868612 174 41061ft 469kts
11-Apr-14 17:48 45.992563 -121.837771 174 41049ft 470kts
11-Apr-14 17:49 45.863312 -121.807072 174 41049ft 469kts
11-Apr-14 17:50 45.734220 -121.776547 174 41045ft 469kts
11-Apr-14 17:51 45.605106 -121.746168 174 41039ft 469kts
11-Apr-14 17:52 45.476001 -121.715949 174 41040ft 469kts
11-Apr-14 17:53 45.346414 -121.685727 174 41040ft 469kts
11-Apr-14 17:54 45.217306 -121.655770 173 41039ft 469kts
11-Apr-14 17:55 45.088316 -121.625969 174 41039ft 469kts
11-Apr-14 17:56 44.959413 -121.596359 174 41030ft 470kts
11-Apr-14 17:57 44.829684 -121.566693 172 41016ft 466kts
11-Apr-14 17:58 44.701309 -121.537415 172 41019ft 466kts
11-Apr-14 17:59 44.594303 -121.513125 172 41020ft 466kts
11-Apr-14 18:00 44.465530 -121.484029 172 41019ft 466kts
11-Apr-14 18:01 44.337231 -121.455146 172 41019ft 466kts
11-Apr-14 18:02 44.208936 -121.426421 172 41019ft 466kts
11-Apr-14 18:03 44.080548 -121.397712 172 41020ft 466kts
11-Apr-14 18:04 43.952020 -121.369208 172 41029ft 466kts
11-Apr-14 18:05 43.823624 -121.340815 172 41029ft 466kts
11-Apr-14 18:06 43.694767 -121.312321 172 41030ft 466kts
11-Apr-14 18:07 43.566688 -121.284119 172 41019ft 465kts
11-Apr-14 18:08 43.438681 -121.255939 172 41020ft 465kts
11-Apr-14 18:09 43.310988 -121.227911 172 41016ft 463kts
11-Apr-14 18:10 43.182978 -121.199998 172 41010ft 462kts
11-Apr-14 18:11 43.055920 -121.172432 172 40999ft 461kts
11-Apr-14 18:12 42.928863 -121.144940 171 40994ft 461kts
11-Apr-14 18:13 42.802168 -121.117668 171 40980ft 461kts
11-Apr-14 18:14 42.675270 -121.090528 171 40979ft 460kts
11-Apr-14 18:15 42.548026 -121.063361 172 40980ft 460kts
11-Apr-14 18:16 42.421258 -121.036395 172 41008ft 457kts
11-Apr-14 18:17 42.295183 -121.009693 172 41009ft 458kts
11-Apr-14 18:18 42.169056 -120.983089 172 41010ft 458kts
11-Apr-14 18:19 42.042877 -120.956581 172 41009ft 458kts
11-Apr-14 18:20 41.916323 -120.930101 172 41009ft 458kts
11-Apr-14 18:21 41.789985 -120.903772 172 40988ft 459kts
11-Apr-14 18:22 41.663413 -120.877498 172 40979ft 459kts
11-Apr-14 18:23 41.536488 -120.851255 172 40979ft 459kts
11-Apr-14 18:24 41.409832 -120.825168 172 40969ft 460kts
11-Apr-14 18:25 41.283153 -120.799129 172 40970ft 459kts
11-Apr-14 18:26 41.156024 -120.773141 173 40969ft 459kts
11-Apr-14 18:27 41.029309 -120.747382 173 40969ft 459kts
11-Apr-14 18:28 40.902995 -120.718263 171 40969ft 460kts
11-Apr-14 18:29 40.776513 -120.687828 171 40942ft 459kts
11-Apr-14 18:30 40.650473 -120.657690 171 40939ft 459kts
11-Apr-14 18:31 40.524443 -120.627549 171 40929ft 459kts
11-Apr-14 18:32 40.398462 -120.597589 171 40915ft 458kts
11-Apr-14 18:33 40.272917 -120.567885 171 40965ft 457kts
11-Apr-14 18:34 40.147614 -120.538361 171 41005ft 456kts
11-Apr-14 18:35 40.022352 -120.508964 171 41027ft 456kts
11-Apr-14 18:36 39.897296 -120.479727 171 41039ft 456kts
11-Apr-14 18:37 39.771786 -120.450495 171 41039ft 455kts
11-Apr-14 18:38 39.647037 -120.421546 171 41072ft 454kts
11-Apr-14 18:39 39.521916 -120.392616 171 41079ft 454kts
11-Apr-14 18:40 39.417902 -120.368647 171 41079ft 454kts
11-Apr-14 18:41 39.293231 -120.340016 171 41079ft 454kts
11-Apr-14 18:42 39.168439 -120.311465 171 41065ft 455kts
11-Apr-14 18:43 39.043136 -120.282904 171 41059ft 455kts
11-Apr-14 18:44 38.918304 -120.254536 171 41068ft 453kts
11-Apr-14 18:45 38.794293 -120.226454 171 41079ft 452kts
11-Apr-14 18:46 38.670273 -120.198473 171 41080ft 452kts
11-Apr-14 18:47 38.546190 -120.170578 171 41079ft 452kts
11-Apr-14 18:48 38.421701 -120.142690 171 41079ft 452kts
11-Apr-14 18:49 38.297583 -120.114983 171 41079ft 452kts
11-Apr-14 18:50 38.173505 -120.087381 171 41079ft 452kts
11-Apr-14 18:51 38.049412 -120.059885 172 41072ft 452kts
11-Apr-14 18:52 37.925392 -120.032469 172 40950ft 451kts
11-Apr-14 18:53 37.801392 -120.005177 172 40871ft 451kts
11-Apr-14 18:54 37.676859 -119.977865 172 40859ft 451kts
11-Apr-14 18:55 37.552727 -119.950700 173 40860ft 451kts
11-Apr-14 18:56 37.429514 -119.923818 173 40850ft 448kts
11-Apr-14 18:57 37.306050 -119.897019 173 40850ft 447kts
11-Apr-14 18:58 37.183079 -119.870400 173 40849ft 447kts
11-Apr-14 18:59 37.059726 -119.843783 173 40849ft 447kts
11-Apr-14 19:00 36.936699 -119.817321 173 40844ft 447kts
11-Apr-14 19:01 36.812392 -119.790685 173 40840ft 454kts
11-Apr-14 19:02 36.687895 -119.764083 174 40847ft 451kts
11-Apr-14 19:03 36.563691 -119.737624 174 40850ft 452kts
11-Apr-14 19:04 36.439080 -119.711173 174 40852ft 452kts
11-Apr-14 19:05 36.314916 -119.684897 174 40851ft 452kts
11-Apr-14 19:06 36.191537 -119.658807 175 40861ft 452kts
11-Apr-14 19:07 36.068025 -119.632862 175 40859ft 451kts
11-Apr-14 19:08 35.943752 -119.616037 185 40861ft 444kts
11-Apr-14 19:09 35.819690 -119.620652 186 40868ft 444kts
11-Apr-14 19:10 35.695888 -119.625259 186 40869ft 444kts
11-Apr-14 19:11 35.572062 -119.629815 187 40879ft 445kts
11-Apr-14 19:12 35.447775 -119.634405 187 40895ft 444kts
11-Apr-14 19:13 35.324078 -119.638918 187 40936ft 443kts
11-Apr-14 19:14 35.203586 -119.598981 151 39206ft 472kts
11-Apr-14 19:15 35.095557 -119.505475 149 36134ft 475kts
11-Apr-14 19:16 35.004805 -119.427696 148 33305ft 475kts
11-Apr-14 19:17 34.896549 -119.335248 146 29777ft 464kts
11-Apr-14 19:18 34.793558 -119.247935 146 27189ft 438kts
11-Apr-14 19:19 34.695856 -119.165594 147 24684ft 415kts
11-Apr-14 19:20 34.602921 -119.087359 147 22351ft 396kts
11-Apr-14 19:21 34.513741 -119.012470 146 19937ft 382kts
11-Apr-14 19:22 34.427467 -118.940345 146 17588ft 370kts
11-Apr-14 19:23 34.341602 -118.876182 159 15332ft 355kts
11-Apr-14 19:24 34.248650 -118.841334 164 13145ft 345kts
11-Apr-14 19:25 34.159558 -118.808781 164 11976ft 310kts
11-Apr-14 19:26 34.081146 -118.780065 164 11026ft 291kts
11-Apr-14 19:27 34.031636 -118.714912 96 9441ft 282kts
11-Apr-14 19:28 34.026445 -118.623588 98 8036ft 263kts
11-Apr-14 19:29 34.018059 -118.538649 97 7002ft 247kts
11-Apr-14 19:30 34.010898 -118.456411 90 6986ft 248kts
11-Apr-14 19:31 34.019298 -118.373584 82 6859ft 250kts
11-Apr-14 19:32 34.028043 -118.292671 82 5426ft 229kts
11-Apr-14 19:33 34.036845 -118.219087 82 3911ft 218kts
11-Apr-14 19:34 34.043455 -118.150201 82 3689ft 202kts
11-Apr-14 19:35 34.002225 -118.116949 172 3714ft 208kts
11-Apr-14 19:36 33.963667 -118.153680 245 3713ft 170kts
11-Apr-14 19:37 33.955662 -118.205201 263 2988ft 144kts
11-Apr-14 19:38 33.950936 -118.252396 263 2225ft 133kts
11-Apr-14 19:39 33.946513 -118.295669 263 1544ft 127kts
11-Apr-14 19:40 33.942223 -118.337613 263 877ft 125kts
11-Apr-14 19:41 33.938048 -118.378409 262 227ft 119kts
11-Apr-14 19:42 33.935745 -118.400693 256 134ft 24kts
11-Apr-14 19:43 33.934543 -118.402567 225 134ft 6kts
11-Apr-14 19:44 33.934560 -118.398191 82 134ft 20kts
11-Apr-14 19:45 33.934080 -118.393773 186 134ft 13kts
11-Apr-14 19:46 33.933439 -118.393414 76 134ft 0kts
11-Apr-14 19:47 33.933439 -118.393414 76 134ft 0kts
11-Apr-14 19:48 33.933439 -118.393414 76 134ft 0kts
11-Apr-14 19:49 33.933439 -118.393414 76 134ft 0kts
11-Apr-14 19:50 33.933439 -118.393414 76 134ft 0kts
11-Apr-14 19:51 33.933439 -118.393414 76 134ft 0kts
11-Apr-14 19:52 33.933439 -118.393414 76 134ft 0kts
11-Apr-14 19:53 33.933439 -118.393414 76 134ft 0kts
11-Apr-14 19:54 33.933439 -118.393414 76 134ft 0kts
11-Apr-14 19:55 33.933439 -118.393414 76 134ft 0kts
11-Apr-14 19:56 33.933439 -118.393414 76 134ft 0kts

Navigation Log

Ident Type
Flight plan parsing failed, navigation log unavailable